N41643 KISM-KLAL
Flight info
| Callsign | N41643 |
|---|---|
| Flight time | 0h 27m |
| Altitude | 2500 |
| Route | VFR SOUTHWEST |
| Aircraft | C172/L-SDE3FGHIRWY/G |
Departure
| Time | 2026-04-26 22:10 |
|---|---|
| Airport | Kissimmee Gateway Airport (KISM) |
Arrival
| Time | 2026-04-26 22:37 |
|---|---|
| Airport | Lakeland Linder International Airport (KLAL) |
| Time | Latitude | Longitude | Altitude | Speed | Heading |
|---|---|---|---|---|---|
| 2026-04-26 22:03 | 28.29218 | -81.44071 | 91 ft | 0 kts | 43° |
| 2026-04-26 22:06 | 28.29229 | -81.44068 | 91 ft | 6 kts | 4° |
| 2026-04-26 22:07 | 28.29312 | -81.44096 | 90 ft | 17 kts | 328° |
| 2026-04-26 22:07 | 28.29419 | -81.44177 | 89 ft | 20 kts | 336° |
| 2026-04-26 22:07 | 28.29533 | -81.44250 | 91 ft | 14 kts | 334° |
| 2026-04-26 22:07 | 28.29583 | -81.44231 | 92 ft | 0 kts | 53° |
| 2026-04-26 22:08 | 28.29596 | -81.44208 | 90 ft | 9 kts | 58° |
| 2026-04-26 22:09 | 28.29579 | -81.44135 | 87 ft | 14 kts | 148° |
| 2026-04-26 22:09 | 28.29340 | -81.43972 | 90 ft | 64 kts | 145° |
| 2026-04-26 22:09 | 28.28869 | -81.43667 | 130 ft | 89 kts | 145° |
| 2026-04-26 22:09 | 28.28418 | -81.43139 | 247 ft | 99 kts | 133° |
| 2026-04-26 22:10 | 28.28023 | -81.42521 | 462 ft | 96 kts | 112° |
| 2026-04-26 22:10 | 28.27690 | -81.41842 | 637 ft | 99 kts | 150° |
| 2026-04-26 22:10 | 28.27103 | -81.41958 | 842 ft | 94 kts | 227° |
| 2026-04-26 22:10 | 28.26684 | -81.42543 | 983 ft | 95 kts | 247° |
| 2026-04-26 22:11 | 28.26424 | -81.43243 | 1083 ft | 99 kts | 258° |
| 2026-04-26 22:11 | 28.26278 | -81.43983 | 1283 ft | 92 kts | 260° |
| 2026-04-26 22:11 | 28.26150 | -81.44684 | 1517 ft | 90 kts | 262° |
| 2026-04-26 22:11 | 28.26058 | -81.45398 | 1628 ft | 96 kts | 264° |
| 2026-04-26 22:12 | 28.25947 | -81.46034 | 1950 ft | 74 kts | 259° |
| 2026-04-26 22:12 | 28.25833 | -81.46680 | 2055 ft | 92 kts | 265° |
| 2026-04-26 22:12 | 28.25699 | -81.47424 | 2126 ft | 100 kts | 258° |
| 2026-04-26 22:12 | 28.25502 | -81.48236 | 2187 ft | 110 kts | 258° |
| 2026-04-26 22:13 | 28.25310 | -81.49078 | 2262 ft | 109 kts | 258° |
| 2026-04-26 22:13 | 28.25132 | -81.49906 | 2330 ft | 107 kts | 260° |
| 2026-04-26 22:13 | 28.24964 | -81.50725 | 2358 ft | 107 kts | 261° |
| 2026-04-26 22:13 | 28.24806 | -81.51549 | 2395 ft | 107 kts | 261° |
| 2026-04-26 22:14 | 28.24668 | -81.52378 | 2438 ft | 106 kts | 270° |
| 2026-04-26 22:14 | 28.24809 | -81.53175 | 2551 ft | 104 kts | 290° |
| 2026-04-26 22:14 | 28.24897 | -81.53984 | 2605 ft | 108 kts | 270° |
| 2026-04-26 22:14 | 28.24825 | -81.54886 | 2528 ft | 114 kts | 264° |
| 2026-04-26 22:15 | 28.24715 | -81.55774 | 2597 ft | 111 kts | 267° |
| 2026-04-26 22:15 | 28.24641 | -81.56673 | 2523 ft | 116 kts | 265° |
| 2026-04-26 22:15 | 28.24553 | -81.57601 | 2442 ft | 119 kts | 267° |
| 2026-04-26 22:15 | 28.24482 | -81.58490 | 2432 ft | 107 kts | 267° |
| 2026-04-26 22:16 | 28.24418 | -81.59325 | 2360 ft | 106 kts | 267° |
| 2026-04-26 22:16 | 28.24359 | -81.60148 | 2401 ft | 107 kts | 265° |
| 2026-04-26 22:16 | 28.24216 | -81.61004 | 2403 ft | 113 kts | 261° |
| 2026-04-26 22:16 | 28.24034 | -81.61851 | 2468 ft | 109 kts | 255° |
| 2026-04-26 22:17 | 28.23787 | -81.62656 | 2462 ft | 111 kts | 251° |
| 2026-04-26 22:17 | 28.23450 | -81.63429 | 2408 ft | 107 kts | 242° |
| 2026-04-26 22:17 | 28.23031 | -81.64123 | 2300 ft | 107 kts | 240° |
| 2026-04-26 22:17 | 28.22613 | -81.64753 | 2387 ft | 96 kts | 236° |
| 2026-04-26 22:18 | 28.22184 | -81.65334 | 2447 ft | 97 kts | 238° |
| 2026-04-26 22:18 | 28.21782 | -81.65934 | 2479 ft | 96 kts | 240° |
| 2026-04-26 22:18 | 28.21365 | -81.66550 | 2508 ft | 98 kts | 237° |
| 2026-04-26 22:18 | 28.20869 | -81.67159 | 2451 ft | 102 kts | 233° |
| 2026-04-26 22:19 | 28.20414 | -81.67756 | 2447 ft | 98 kts | 250° |
| 2026-04-26 22:19 | 28.20126 | -81.68451 | 2453 ft | 97 kts | 250° |
| 2026-04-26 22:19 | 28.19807 | -81.69103 | 2516 ft | 95 kts | 248° |
| 2026-04-26 22:19 | 28.19566 | -81.69524 | 2556 ft | 98 kts | 243° |
| 2026-04-26 22:20 | 28.19206 | -81.70210 | 2485 ft | 103 kts | 246° |
| 2026-04-26 22:20 | 28.18933 | -81.70949 | 2452 ft | 98 kts | 256° |
| 2026-04-26 22:20 | 28.18699 | -81.71639 | 2493 ft | 95 kts | 256° |
| 2026-04-26 22:20 | 28.18515 | -81.72330 | 2530 ft | 87 kts | 261° |
| 2026-04-26 22:21 | 28.18406 | -81.72979 | 2476 ft | 78 kts | 266° |
| 2026-04-26 22:21 | 28.18329 | -81.73614 | 2393 ft | 81 kts | 267° |
| 2026-04-26 22:21 | 28.18207 | -81.74217 | 2501 ft | 84 kts | 256° |
| 2026-04-26 22:21 | 28.18052 | -81.74850 | 2459 ft | 89 kts | 261° |
| 2026-04-26 22:22 | 28.17811 | -81.75560 | 2257 ft | 97 kts | 251° |
| 2026-04-26 22:22 | 28.17762 | -81.76256 | 2043 ft | 96 kts | 303° |
| 2026-04-26 22:22 | 28.18264 | -81.76737 | 1826 ft | 89 kts | 306° |
| 2026-04-26 22:22 | 28.18185 | -81.77371 | 1630 ft | 92 kts | 244° |
| 2026-04-26 22:23 | 28.17833 | -81.77973 | 1480 ft | 92 kts | 245° |
| 2026-04-26 22:23 | 28.17483 | -81.78564 | 1372 ft | 89 kts | 238° |
| 2026-04-26 22:23 | 28.17126 | -81.79141 | 1213 ft | 89 kts | 240° |
| 2026-04-26 22:23 | 28.16784 | -81.79698 | 1223 ft | 88 kts | 240° |
| 2026-04-26 22:24 | 28.16412 | -81.80275 | 1263 ft | 93 kts | 238° |
| 2026-04-26 22:24 | 28.15989 | -81.80853 | 1290 ft | 101 kts | 230° |
| 2026-04-26 22:24 | 28.15401 | -81.81301 | 1208 ft | 101 kts | 210° |
| 2026-04-26 22:24 | 28.14774 | -81.81557 | 1300 ft | 93 kts | 204° |
| 2026-04-26 22:25 | 28.14112 | -81.81729 | 1190 ft | 99 kts | 200° |
| 2026-04-26 22:25 | 28.13426 | -81.81847 | 1148 ft | 98 kts | 197° |
| 2026-04-26 22:25 | 28.12810 | -81.82107 | 1134 ft | 89 kts | 229° |
| 2026-04-26 22:25 | 28.12462 | -81.82698 | 1165 ft | 92 kts | 239° |
| 2026-04-26 22:26 | 28.12099 | -81.83294 | 1156 ft | 86 kts | 241° |
| 2026-04-26 22:26 | 28.11760 | -81.83814 | 1148 ft | 81 kts | 240° |
| 2026-04-26 22:26 | 28.11397 | -81.84367 | 1217 ft | 91 kts | 237° |
| 2026-04-26 22:26 | 28.10971 | -81.84917 | 1238 ft | 90 kts | 237° |
| 2026-04-26 22:27 | 28.10585 | -81.85466 | 1047 ft | 88 kts | 240° |
| 2026-04-26 22:27 | 28.10302 | -81.86090 | 1078 ft | 89 kts | 253° |
| 2026-04-26 22:27 | 28.10080 | -81.86742 | 1242 ft | 89 kts | 251° |
| 2026-04-26 22:27 | 28.09823 | -81.87362 | 1271 ft | 88 kts | 247° |
| 2026-04-26 22:28 | 28.09562 | -81.87946 | 1240 ft | 84 kts | 249° |
| 2026-04-26 22:28 | 28.09256 | -81.88565 | 1251 ft | 93 kts | 247° |
| 2026-04-26 22:28 | 28.08978 | -81.89207 | 1235 ft | 89 kts | 252° |
| 2026-04-26 22:28 | 28.08748 | -81.89857 | 1157 ft | 89 kts | 257° |
| 2026-04-26 22:29 | 28.08534 | -81.90531 | 1154 ft | 94 kts | 254° |
| 2026-04-26 22:29 | 28.08403 | -81.91253 | 1174 ft | 93 kts | 266° |
| 2026-04-26 22:29 | 28.08305 | -81.91994 | 1248 ft | 95 kts | 266° |
| 2026-04-26 22:29 | 28.08223 | -81.92707 | 1317 ft | 87 kts | 267° |
| 2026-04-26 22:30 | 28.08123 | -81.93321 | 1351 ft | 79 kts | 268° |
| 2026-04-26 22:30 | 28.08062 | -81.93976 | 1248 ft | 85 kts | 262° |
| 2026-04-26 22:30 | 28.07937 | -81.94644 | 1192 ft | 88 kts | 263° |
| 2026-04-26 22:30 | 28.07828 | -81.95333 | 1193 ft | 89 kts | 266° |
| 2026-04-26 22:31 | 28.07687 | -81.96020 | 1226 ft | 88 kts | 263° |
| 2026-04-26 22:31 | 28.07544 | -81.96701 | 1248 ft | 91 kts | 261° |
| 2026-04-26 22:31 | 28.07361 | -81.97401 | 1299 ft | 93 kts | 258° |
| 2026-04-26 22:31 | 28.07186 | -81.98113 | 1275 ft | 94 kts | 260° |
| 2026-04-26 22:32 | 28.06974 | -81.98807 | 1217 ft | 91 kts | 249° |
| 2026-04-26 22:32 | 28.06634 | -81.99408 | 1225 ft | 88 kts | 240° |
| 2026-04-26 22:32 | 28.06242 | -81.99921 | 1203 ft | 86 kts | 233° |
| 2026-04-26 22:32 | 28.05851 | -82.00412 | 1086 ft | 86 kts | 238° |
| 2026-04-26 22:33 | 28.05460 | -82.00948 | 1085 ft | 92 kts | 237° |
| 2026-04-26 22:33 | 28.04170 | -82.01639 | 1145 ft | 111 kts | 186° |
| 2026-04-26 22:33 | 28.03413 | -82.01615 | 1104 ft | 108 kts | 189° |
| 2026-04-26 22:34 | 28.02648 | -82.01605 | 1111 ft | 114 kts | 187° |
| 2026-04-26 22:34 | 28.01846 | -82.01525 | 1169 ft | 119 kts | 165° |
| 2026-04-26 22:34 | 28.01392 | -82.00772 | 1120 ft | 125 kts | 97° |
| 2026-04-26 22:34 | 28.01364 | -81.99819 | 1195 ft | 121 kts | 90° |
| 2026-04-26 22:35 | 28.01261 | -81.98879 | 1166 ft | 120 kts | 101° |
| 2026-04-26 22:35 | 28.00862 | -81.98146 | 1143 ft | 109 kts | 161° |
| 2026-04-26 22:35 | 28.00142 | -81.98129 | 916 ft | 101 kts | 209° |
| 2026-04-26 22:35 | 27.99708 | -81.98680 | 685 ft | 92 kts | 240° |
| 2026-04-26 22:36 | 27.99294 | -81.99209 | 511 ft | 86 kts | 237° |
| 2026-04-26 22:36 | 27.99085 | -81.99729 | 396 ft | 70 kts | 264° |
| 2026-04-26 22:36 | 27.99001 | -82.00305 | 371 ft | 75 kts | 275° |
| 2026-04-26 22:36 | 27.99032 | -82.00897 | 312 ft | 73 kts | 274° |
| 2026-04-26 22:37 | 27.99031 | -82.01457 | 239 ft | 70 kts | 273° |
| 2026-04-26 22:37 | 27.99032 | -82.01936 | 169 ft | 51 kts | 275° |
| 2026-04-26 22:37 | 27.99034 | -82.02290 | 139 ft | 34 kts | 270° |
| 2026-04-26 22:37 | 27.99036 | -82.02560 | 137 ft | 39 kts | 275° |
| 2026-04-26 22:38 | 27.99036 | -82.02830 | 138 ft | 23 kts | 265° |
| 2026-04-26 22:38 | 27.98976 | -82.02893 | 137 ft | 17 kts | 180° |
| 2026-04-26 22:38 | 27.98829 | -82.02887 | 133 ft | 19 kts | 150° |
| 2026-04-26 22:38 | 27.98815 | -82.02725 | 133 ft | 23 kts | 89° |
| 2026-04-26 22:39 | 27.98815 | -82.02542 | 135 ft | 24 kts | 89° |
| 2026-04-26 22:39 | 27.98815 | -82.02369 | 135 ft | 14 kts | 101° |
| 2026-04-26 22:39 | 27.98783 | -82.02282 | 135 ft | 13 kts | 94° |
| 2026-04-26 22:39 | 27.98776 | -82.02215 | 137 ft | 5 kts | 124° |
| 2026-04-26 22:40 | 27.98786 | -82.02193 | 138 ft | 0 kts | 354° |